createdAt,value
2022-09-17T00:01:31.575Z,1.40
2022-09-17T00:06:39.036Z,1.23
2022-09-17T00:11:45.978Z,1.60
2022-09-17T00:16:52.005Z,1.27
2022-09-17T00:21:59.497Z,1.63
2022-09-17T00:27:06.297Z,1.77
2022-09-17T00:32:12.233Z,1.15
2022-09-17T00:37:19.640Z,1.20
2022-09-17T00:42:26.778Z,1.55
2022-09-17T00:47:36.269Z,1.48
2022-09-17T00:52:48.392Z,1.88
2022-09-17T00:57:59.037Z,1.50
2022-09-17T01:03:05.379Z,1.23
2022-09-17T01:08:22.843Z,1.40
2022-09-17T01:13:44.176Z,1.42
2022-09-17T01:19:05.830Z,1.52
2022-09-17T01:25:02.012Z,1.52
2022-09-17T01:30:29.448Z,1.80
2022-09-17T01:35:46.375Z,1.38
2022-09-17T01:40:58.704Z,1.25
2022-09-17T01:46:15.893Z,1.15
2022-09-17T01:51:26.292Z,1.45
2022-09-17T01:56:38.797Z,1.20
2022-09-17T02:01:49.577Z,0.95
2022-09-17T02:07:01.075Z,1.60
2022-09-17T02:12:13.384Z,1.08
2022-09-17T02:17:27.321Z,1.25
2022-09-17T02:22:40.667Z,1.38
2022-09-17T02:27:57.740Z,1.48
2022-09-17T02:33:09.341Z,1.08
2022-09-17T02:38:15.413Z,1.17
2022-09-17T02:43:32.141Z,1.17
2022-09-17T02:49:21.190Z,0.85
2022-09-17T02:54:34.286Z,1.20
2022-09-17T02:59:52.203Z,1.20
2022-09-17T03:05:01.474Z,1.02
2022-09-17T03:10:09.398Z,1.02
2022-09-17T03:15:17.333Z,0.95
2022-09-17T03:20:24.987Z,0.93
2022-09-17T03:25:30.855Z,0.85
2022-09-17T03:30:37.409Z,1.10
2022-09-17T03:35:46.905Z,1.10
2022-09-17T03:41:04.389Z,1.00
2022-09-17T03:46:10.469Z,1.10
2022-09-17T03:51:17.915Z,1.08
2022-09-17T03:56:23.891Z,1.02
2022-09-17T04:01:31.065Z,1.20
2022-09-17T04:06:38.739Z,0.88
2022-09-17T04:11:44.919Z,1.42
2022-09-17T04:16:51.407Z,0.80
2022-09-17T04:21:58.769Z,1.38
2022-09-17T04:27:05.098Z,0.68
2022-09-17T04:32:11.193Z,0.82
2022-09-17T04:37:20.112Z,1.73
2022-09-17T04:42:26.634Z,1.00
2022-09-17T04:47:32.790Z,1.13
2022-09-17T04:52:44.759Z,0.88
2022-09-17T04:57:52.124Z,0.80
2022-09-17T05:02:58.370Z,0.90
2022-09-17T05:08:06.198Z,1.00
2022-09-17T05:13:12.193Z,0.88
2022-09-17T05:18:18.382Z,0.70
2022-09-17T05:23:26.239Z,0.70
2022-09-17T05:28:32.622Z,1.02
2022-09-17T05:33:38.709Z,1.33
2022-09-17T05:38:46.268Z,1.58
2022-09-17T05:43:52.699Z,1.15
2022-09-17T05:48:59.029Z,1.10
2022-09-17T05:54:06.971Z,1.15
2022-09-17T05:59:13.106Z,1.10
2022-09-17T06:04:19.427Z,1.40
2022-09-17T06:09:27.259Z,1.27
2022-09-17T06:14:33.496Z,1.17
2022-09-17T06:19:39.637Z,1.30
2022-09-17T06:24:47.174Z,1.80
2022-09-17T06:29:53.357Z,1.00
2022-09-17T06:34:59.451Z,1.17
2022-09-17T06:40:09.296Z,1.05
2022-09-17T06:45:17.202Z,1.17
2022-09-17T06:50:24.147Z,2.58
2022-09-17T06:55:32.231Z,1.33
2022-09-17T07:00:38.265Z,1.60
2022-09-17T07:05:47.028Z,1.20
2022-09-17T07:10:58.089Z,1.13
2022-09-17T07:16:07.083Z,1.58
2022-09-17T07:21:13.409Z,1.23
2022-09-17T07:26:22.171Z,1.63
2022-09-17T07:31:28.324Z,1.42
2022-09-17T07:36:34.437Z,1.52
2022-09-17T07:41:42.308Z,1.30
2022-09-17T07:46:48.614Z,1.48
2022-09-17T07:51:55.269Z,1.67
2022-09-17T07:57:04.458Z,1.73
2022-09-17T08:02:14.874Z,1.10
2022-09-17T08:07:21.616Z,2.28
2022-09-17T08:12:29.525Z,1.00
2022-09-17T08:17:38.303Z,1.00
2022-09-17T08:22:49.872Z,0.98
2022-09-17T08:27:58.292Z,0.90
2022-09-17T08:33:04.481Z,0.90
2022-09-17T08:38:10.444Z,1.00
2022-09-17T08:43:21.502Z,1.20
2022-09-17T08:48:36.807Z,0.88
2022-09-17T08:53:59.161Z,0.80
2022-09-17T08:59:21.782Z,1.42
2022-09-17T09:05:00.858Z,0.70
2022-09-17T09:15:38.942Z,1.48
2022-09-17T09:20:53.890Z,1.30
2022-09-17T09:26:14.071Z,1.05
2022-09-17T09:31:49.172Z,0.68
2022-09-17T09:36:59.645Z,0.60
2022-09-17T09:42:12.875Z,0.88
2022-09-17T09:47:44.404Z,0.80
2022-09-17T09:53:08.504Z,0.60
2022-09-17T09:58:29.109Z,0.70
2022-09-17T10:03:42.493Z,0.60
2022-09-17T10:09:14.172Z,0.70
2022-09-17T10:14:27.247Z,0.80
2022-09-17T10:19:35.435Z,0.95
2022-09-17T10:24:41.870Z,0.60
2022-09-17T10:35:29.088Z,0.52
2022-09-17T10:45:46.756Z,0.30
2022-09-17T10:50:55.700Z,0.40
2022-09-17T11:01:29.360Z,0.40
2022-09-17T11:07:25.248Z,0.60
2022-09-17T11:12:43.495Z,0.50
2022-09-17T11:18:06.409Z,0.50
2022-09-17T11:23:34.179Z,0.60
2022-09-17T11:28:55.009Z,0.40
2022-09-17T11:34:28.246Z,0.68
2022-09-17T11:39:43.224Z,0.70
2022-09-17T11:44:53.316Z,0.50
2022-09-17T11:50:05.402Z,0.30
2022-09-17T11:55:23.722Z,0.40
2022-09-17T12:00:31.833Z,0.40
2022-09-17T12:05:42.257Z,0.60
2022-09-17T12:10:55.100Z,0.55
2022-09-17T12:16:17.461Z,0.60
2022-09-17T12:21:31.335Z,0.52
2022-09-17T12:27:21.538Z,0.60
2022-09-17T12:32:58.993Z,0.55
2022-09-17T12:38:27.178Z,0.43
2022-09-17T12:44:04.476Z,0.40
2022-09-17T12:49:47.287Z,0.52
2022-09-17T12:55:25.259Z,0.45
2022-09-17T13:00:41.745Z,0.73
2022-09-17T13:06:28.386Z,0.68
2022-09-17T13:12:05.866Z,0.50
2022-09-17T13:17:25.196Z,0.70
2022-09-17T13:22:34.564Z,1.15
2022-09-17T13:27:42.126Z,0.65
2022-09-17T13:32:53.377Z,1.00
2022-09-17T13:38:02.432Z,0.90
2022-09-17T13:43:13.882Z,1.17
2022-09-17T13:48:26.548Z,0.70
2022-09-17T13:53:35.192Z,0.90
2022-09-17T13:58:43.623Z,0.80
2022-09-17T14:03:57.372Z,0.88
2022-09-17T14:09:38.513Z,1.05
2022-09-17T14:14:53.674Z,1.27
2022-09-17T14:20:02.417Z,1.15
2022-09-17T14:25:19.005Z,1.20
2022-09-17T14:30:27.911Z,0.93
2022-09-17T14:35:41.376Z,1.10
2022-09-17T14:40:49.721Z,1.33
2022-09-17T14:45:56.468Z,1.42
2022-09-17T14:51:29.391Z,3.83
2022-09-17T14:56:49.468Z,2.20
2022-09-17T15:01:56.253Z,1.50
2022-09-17T15:07:15.172Z,1.58
2022-09-17T15:12:23.639Z,1.20
2022-09-17T15:17:30.871Z,1.45
2022-09-17T15:22:42.687Z,1.98
2022-09-17T15:27:51.465Z,4.32
2022-09-17T15:33:00.349Z,5.65
2022-09-17T15:38:24.248Z,2.80
2022-09-17T15:43:33.371Z,2.13
2022-09-17T15:48:41.814Z,2.28
2022-09-17T15:53:57.298Z,1.58
2022-09-17T15:59:05.914Z,1.70
2022-09-17T16:04:31.367Z,1.65
2022-09-17T16:09:59.678Z,1.90
2022-09-17T16:15:08.217Z,2.33
2022-09-17T16:20:22.290Z,3.95
2022-09-17T16:25:31.006Z,6.78
2022-09-17T16:30:37.397Z,15.07
2022-09-17T16:35:45.347Z,8.52
2022-09-17T16:40:53.285Z,5.00
2022-09-17T16:46:03.179Z,3.83
2022-09-17T16:51:10.435Z,7.22
2022-09-17T16:56:18.686Z,4.13
2022-09-17T17:01:25.440Z,4.47
2022-09-17T17:06:32.666Z,2.58
2022-09-17T17:11:41.113Z,4.20
2022-09-17T17:16:47.775Z,4.07
2022-09-17T17:21:54.780Z,5.55
2022-09-17T17:27:04.053Z,3.80
2022-09-17T17:32:10.658Z,5.55
2022-09-17T17:37:18.860Z,6.45
2022-09-17T17:42:36.049Z,12.20
2022-09-17T17:47:44.607Z,19.23
2022-09-17T17:52:50.924Z,16.63
2022-09-17T17:58:01.675Z,23.20
2022-09-17T18:03:08.195Z,34.00
2022-09-17T18:08:17.897Z,23.75
2022-09-17T18:13:26.364Z,17.27
2022-09-17T18:18:43.610Z,18.63
2022-09-17T18:23:52.064Z,11.33
2022-09-17T18:29:03.237Z,9.10
2022-09-17T18:34:14.874Z,15.80
2022-09-17T18:44:51.039Z,10.90
2022-09-17T18:49:57.190Z,9.15
2022-09-17T18:55:04.042Z,9.82
2022-09-17T19:00:13.423Z,8.25
2022-09-17T19:05:20.420Z,7.13
2022-09-17T19:10:27.921Z,7.18
2022-09-17T19:15:36.267Z,7.28
2022-09-17T19:20:44.125Z,6.57
2022-09-17T19:25:51.151Z,6.40
2022-09-17T19:30:59.097Z,5.90
2022-09-17T19:36:07.642Z,6.60
2022-09-17T19:41:16.508Z,6.68
2022-09-17T19:46:28.271Z,6.18
2022-09-17T19:51:36.005Z,6.03
2022-09-17T19:56:45.022Z,5.90
2022-09-17T20:01:53.272Z,5.03
2022-09-17T20:07:02.094Z,5.70
2022-09-17T20:17:25.873Z,5.40
2022-09-17T20:22:32.506Z,5.35
2022-09-17T20:27:39.093Z,4.13
2022-09-17T20:32:46.616Z,3.42
2022-09-17T20:38:57.492Z,4.63
2022-09-17T20:43:20.779Z,3.63
2022-09-17T20:48:29.453Z,2.63
2022-09-17T20:53:39.034Z,2.93
2022-09-17T20:58:48.829Z,2.58
2022-09-17T21:03:56.532Z,2.53
2022-09-17T21:09:03.840Z,2.70
2022-09-17T21:14:10.943Z,2.60
2022-09-17T21:19:20.173Z,2.00
2022-09-17T21:24:26.597Z,1.92
2022-09-17T21:29:32.661Z,3.22
2022-09-17T21:34:41.226Z,1.92
2022-09-17T21:39:50.582Z,2.70
2022-09-17T21:44:59.199Z,2.33
2022-09-17T21:50:09.467Z,2.58
2022-09-17T21:55:19.280Z,2.53
2022-09-17T22:00:28.144Z,1.70
2022-09-17T22:05:36.605Z,1.80
2022-09-17T22:10:45.663Z,2.00
2022-09-17T22:15:58.940Z,1.95
2022-09-17T22:21:16.497Z,2.30
2022-09-17T22:26:25.512Z,2.17
2022-09-17T22:31:31.726Z,1.70
2022-09-17T22:36:42.433Z,2.13
2022-09-17T22:41:50.412Z,1.90
2022-09-17T22:46:57.126Z,2.20
2022-09-17T22:52:05.223Z,2.20
2022-09-17T22:57:11.608Z,2.35
2022-09-17T23:02:17.844Z,2.92
2022-09-17T23:07:25.362Z,2.75
2022-09-17T23:12:31.561Z,2.67
2022-09-17T23:17:37.629Z,2.33
2022-09-17T23:22:45.155Z,2.30
2022-09-17T23:27:51.227Z,2.33
2022-09-17T23:32:58.990Z,3.05
2022-09-17T23:38:06.826Z,2.85
2022-09-17T23:43:12.653Z,2.92
2022-09-17T23:48:18.558Z,2.78
2022-09-17T23:53:26.381Z,2.33
2022-09-17T23:58:33.234Z,2.58
